createdAt,value
2022-09-18T00:00:12.631Z,99.993896
2022-09-18T00:01:21.565Z,99.993896
2022-09-18T00:02:30.163Z,99.993896
2022-09-18T00:03:37.830Z,99.993896
2022-09-18T00:04:47.538Z,99.993896
2022-09-18T00:05:57.207Z,99.993896
2022-09-18T00:07:06.020Z,99.993896
2022-09-18T00:08:14.806Z,99.993896
2022-09-18T00:09:24.538Z,99.993896
2022-09-18T00:10:34.283Z,99.993896
2022-09-18T00:11:43.011Z,99.993896
2022-09-18T00:12:52.717Z,99.993896
2022-09-18T00:14:01.387Z,99.993896
2022-09-18T00:15:11.191Z,99.993896
2022-09-18T00:16:19.884Z,99.993896
2022-09-18T00:17:30.349Z,99.993896
2022-09-18T00:18:39.992Z,99.993896
2022-09-18T00:19:49.653Z,99.993896
2022-09-18T00:20:58.316Z,99.993896
2022-09-18T00:22:07.999Z,99.993896
2022-09-18T00:23:15.721Z,99.993896
2022-09-18T00:24:24.318Z,99.993896
2022-09-18T00:25:33.984Z,99.993896
2022-09-18T00:26:43.663Z,99.993896
2022-09-18T00:27:53.346Z,99.993896
2022-09-18T00:29:01.987Z,99.993896
2022-09-18T00:30:11.629Z,99.993896
2022-09-18T00:31:20.520Z,99.993896
2022-09-18T00:32:29.014Z,99.993896
2022-09-18T00:33:38.714Z,99.993896
2022-09-18T00:34:48.371Z,99.993896
2022-09-18T00:35:58.020Z,99.993896
2022-09-18T00:37:07.685Z,99.993896
2022-09-18T00:38:16.365Z,99.993896
2022-09-18T00:39:25.021Z,99.993896
2022-09-18T00:40:34.691Z,99.993896
2022-09-18T00:41:43.403Z,99.993896
2022-09-18T00:42:52.038Z,99.993896
2022-09-18T00:44:00.713Z,99.993896
2022-09-18T00:45:09.443Z,99.993896
2022-09-18T00:46:19.149Z,99.993896
2022-09-18T00:47:27.928Z,99.993896
2022-09-18T00:48:35.427Z,99.993896
2022-09-18T00:49:44.116Z,99.993896
2022-09-18T00:50:53.761Z,99.993896
2022-09-18T00:52:03.465Z,99.993896
2022-09-18T00:53:13.152Z,99.993896
2022-09-18T00:54:21.808Z,99.993896
2022-09-18T00:55:30.632Z,99.993896
2022-09-18T00:56:38.274Z,99.993896
2022-09-18T00:57:46.957Z,99.993896
2022-09-18T00:58:56.629Z,99.993896
2022-09-18T01:00:06.281Z,99.993896
2022-09-18T01:01:16.054Z,99.993896
2022-09-18T01:02:25.723Z,99.993896
2022-09-18T01:03:35.465Z,99.993896
2022-09-18T01:04:45.004Z,99.993896
2022-09-18T01:05:54.724Z,99.993896
2022-09-18T01:07:04.426Z,99.993896
2022-09-18T01:08:14.221Z,99.993896
2022-09-18T01:09:28.474Z,99.993896
2022-09-18T01:10:33.590Z,99.993896
2022-09-18T01:11:44.039Z,99.993896
2022-09-18T01:12:52.768Z,99.993896
2022-09-18T01:14:00.437Z,99.993896
2022-09-18T01:15:09.948Z,99.993896
2022-09-18T01:16:18.672Z,99.993896
2022-09-18T01:17:26.266Z,99.993896
2022-09-18T01:18:35.964Z,99.993896
2022-09-18T01:19:45.750Z,99.993896
2022-09-18T01:20:54.448Z,99.993896
2022-09-18T01:22:03.195Z,99.993896
2022-09-18T01:23:12.893Z,99.993896
2022-09-18T01:24:21.607Z,99.993896
2022-09-18T01:25:31.338Z,99.993896
2022-09-18T01:26:40.023Z,99.993896
2022-09-18T01:27:48.662Z,99.993896
2022-09-18T01:28:57.328Z,99.993896
2022-09-18T01:30:06.008Z,99.993896
2022-09-18T01:31:14.749Z,99.993896
2022-09-18T01:32:22.480Z,99.993896
2022-09-18T01:33:32.161Z,99.993896
2022-09-18T01:34:40.826Z,99.993896
2022-09-18T01:35:49.689Z,99.993896
2022-09-18T01:36:59.208Z,99.993896
2022-09-18T01:38:08.902Z,99.993896
2022-09-18T01:39:16.605Z,99.993896
2022-09-18T01:40:24.323Z,99.993896
2022-09-18T01:41:34.567Z,99.993896
2022-09-18T01:42:43.230Z,99.993896
2022-09-18T01:43:52.885Z,99.993896
2022-09-18T01:45:00.514Z,99.993896
2022-09-18T01:46:10.188Z,99.993896
2022-09-18T01:47:19.842Z,99.993896
2022-09-18T01:48:28.534Z,99.993896
2022-09-18T01:49:36.205Z,99.993896
2022-09-18T01:50:45.869Z,99.993896
2022-09-18T01:51:54.604Z,99.993896
2022-09-18T01:53:04.204Z,99.993896
2022-09-18T01:54:12.848Z,99.993896
2022-09-18T01:55:21.555Z,99.993896
2022-09-18T01:56:31.204Z,99.993896
2022-09-18T01:57:40.852Z,99.993896
2022-09-18T01:58:48.560Z,99.993896
2022-09-18T01:59:56.230Z,99.993896
2022-09-18T02:01:04.895Z,99.993896
2022-09-18T02:02:14.745Z,99.993896
2022-09-18T02:03:23.313Z,99.993896
2022-09-18T02:04:33.059Z,99.993896
2022-09-18T02:05:41.687Z,99.993896
2022-09-18T02:06:50.362Z,99.993896
2022-09-18T02:08:00.181Z,99.993896
2022-09-18T02:09:08.691Z,99.993896
2022-09-18T02:10:17.359Z,99.993896
2022-09-18T02:11:27.036Z,99.993896
2022-09-18T02:12:34.857Z,99.993896
2022-09-18T02:13:43.564Z,99.993896
2022-09-18T02:14:53.215Z,99.993896
2022-09-18T02:16:01.949Z,99.993896
2022-09-18T02:17:11.538Z,99.993896
2022-09-18T02:18:21.203Z,99.993896
2022-09-18T02:19:29.842Z,99.993896
2022-09-18T02:20:38.506Z,99.993896
2022-09-18T02:21:47.463Z,99.993896
2022-09-18T02:22:57.145Z,99.993896
2022-09-18T02:24:06.927Z,99.993896
2022-09-18T02:25:15.430Z,99.993896
2022-09-18T02:26:24.935Z,99.993896
2022-09-18T02:27:34.593Z,99.993896
2022-09-18T02:28:44.304Z,99.993896
2022-09-18T02:29:51.977Z,99.993896
2022-09-18T02:31:00.768Z,99.993896
2022-09-18T02:32:09.390Z,99.993896
2022-09-18T02:33:19.099Z,99.993896
2022-09-18T02:34:28.757Z,99.993896
2022-09-18T02:35:38.412Z,99.993896
2022-09-18T02:36:47.080Z,99.993896
2022-09-18T02:37:55.717Z,99.993896
2022-09-18T02:39:03.483Z,99.993896
2022-09-18T02:40:12.302Z,99.993896
2022-09-18T02:41:20.801Z,99.993896
2022-09-18T02:42:30.453Z,99.993896
2022-09-18T02:43:39.110Z,99.993896
2022-09-18T02:44:47.774Z,99.993896
2022-09-18T02:45:57.437Z,99.993896
2022-09-18T02:47:06.088Z,99.993896
2022-09-18T02:48:15.775Z,99.993896
2022-09-18T02:49:23.463Z,99.993896
2022-09-18T02:50:33.269Z,99.993896
2022-09-18T02:51:41.913Z,99.993896
2022-09-18T02:52:51.561Z,99.993896
2022-09-18T02:54:01.279Z,99.993896
2022-09-18T02:55:10.949Z,99.993896
2022-09-18T02:56:19.745Z,99.993896
2022-09-18T02:57:29.270Z,99.993896
2022-09-18T02:58:39.033Z,99.993896
2022-09-18T02:59:49.619Z,99.993896
2022-09-18T03:00:59.327Z,99.993896
2022-09-18T03:02:09.258Z,99.993896
2022-09-18T03:03:18.756Z,99.993896
2022-09-18T03:04:28.461Z,99.993896
2022-09-18T03:05:37.123Z,99.993896
2022-09-18T03:06:46.776Z,99.993896
2022-09-18T03:07:56.231Z,99.993896
2022-09-18T03:09:05.969Z,99.993896
2022-09-18T03:10:14.589Z,99.993896
2022-09-18T03:11:24.396Z,99.993896
2022-09-18T03:12:34.471Z,99.993896
2022-09-18T03:13:44.188Z,99.993896
2022-09-18T03:14:51.844Z,99.993896
2022-09-18T03:16:00.613Z,99.993896
2022-09-18T03:17:09.213Z,99.993896
2022-09-18T03:18:18.863Z,99.993896
2022-09-18T03:19:28.574Z,99.993896
2022-09-18T03:20:37.269Z,99.993896
2022-09-18T03:21:45.946Z,99.993896
2022-09-18T03:22:55.637Z,99.993896
2022-09-18T03:24:03.770Z,99.993896
2022-09-18T03:25:13.413Z,99.993896
2022-09-18T03:26:23.052Z,99.993896
2022-09-18T03:27:32.840Z,99.993896
2022-09-18T03:28:42.233Z,99.993896
2022-09-18T03:29:50.923Z,99.993896
2022-09-18T03:30:59.650Z,99.993896
2022-09-18T03:32:07.262Z,99.993896
2022-09-18T03:33:16.898Z,99.87793
2022-09-18T03:34:24.879Z,99.365234
2022-09-18T03:35:32.542Z,99.468994
2022-09-18T03:36:40.214Z,99.468994
2022-09-18T03:37:49.963Z,99.468994
2022-09-18T03:38:59.589Z,99.67041
2022-09-18T03:40:07.249Z,99.572754
2022-09-18T03:41:17.019Z,99.365234
2022-09-18T03:42:26.720Z,99.365234
2022-09-18T03:43:35.537Z,99.365234
2022-09-18T03:44:44.142Z,99.468994
2022-09-18T03:45:53.877Z,99.365234
2022-09-18T03:47:02.535Z,99.157715
2022-09-18T03:48:10.250Z,99.365234
2022-09-18T03:49:17.984Z,99.365234
2022-09-18T03:50:27.691Z,99.572754
2022-09-18T03:51:36.465Z,99.77417
2022-09-18T03:52:50.481Z,99.87793
2022-09-18T03:53:56.847Z,99.993896
2022-09-18T03:55:05.612Z,99.993896
2022-09-18T03:56:15.325Z,99.993896
2022-09-18T03:57:23.972Z,99.993896
2022-09-18T03:58:33.628Z,99.993896
2022-09-18T03:59:41.511Z,99.993896
2022-09-18T04:00:51.071Z,99.993896
2022-09-18T04:01:59.748Z,99.993896
2022-09-18T04:03:07.464Z,99.993896
2022-09-18T04:04:17.018Z,99.993896
2022-09-18T04:05:25.742Z,99.993896
2022-09-18T04:06:35.446Z,99.993896
2022-09-18T04:07:43.098Z,99.993896
2022-09-18T04:08:52.809Z,99.993896
2022-09-18T04:10:01.486Z,99.993896
2022-09-18T04:11:11.207Z,99.993896
2022-09-18T04:12:19.863Z,99.993896
2022-09-18T04:13:28.548Z,99.993896
2022-09-18T04:14:38.198Z,99.993896
2022-09-18T04:15:47.986Z,99.993896
2022-09-18T04:16:57.665Z,99.993896
2022-09-18T04:18:06.328Z,99.993896
2022-09-18T04:19:14.998Z,99.993896
2022-09-18T04:20:23.642Z,99.993896
2022-09-18T04:21:32.374Z,99.993896
2022-09-18T04:22:41.091Z,99.993896
2022-09-18T04:23:50.827Z,99.993896
2022-09-18T04:24:59.513Z,99.993896
2022-09-18T04:26:09.182Z,99.993896
2022-09-18T04:27:18.833Z,99.993896
2022-09-18T04:28:28.537Z,99.993896
2022-09-18T04:29:36.166Z,99.993896
2022-09-18T04:30:45.848Z,99.993896
2022-09-18T04:31:54.634Z,99.993896
2022-09-18T04:33:03.199Z,99.993896
2022-09-18T04:34:12.885Z,99.993896
2022-09-18T04:35:22.588Z,99.981689
2022-09-18T04:36:30.206Z,99.572754
2022-09-18T04:37:38.886Z,99.468994
2022-09-18T04:38:46.537Z,99.11499
2022-09-18T04:39:56.315Z,99.01123
2022-09-18T04:41:05.968Z,99.11499
2022-09-18T04:42:14.619Z,99.212646
2022-09-18T04:43:24.285Z,99.316406
2022-09-18T04:44:33.917Z,99.316406
2022-09-18T04:45:43.587Z,99.420166
2022-09-18T04:46:52.252Z,99.316406
2022-09-18T04:47:59.983Z,99.11499
2022-09-18T04:49:08.526Z,99.212646
2022-09-18T04:50:16.221Z,99.316406
2022-09-18T04:51:25.924Z,99.420166
2022-09-18T04:52:34.590Z,99.420166
2022-09-18T04:53:44.245Z,99.212646
2022-09-18T04:54:53.913Z,99.420166
2022-09-18T04:56:03.584Z,99.627686
2022-09-18T04:57:11.329Z,99.731445
2022-09-18T04:58:20.966Z,99.627686
2022-09-18T04:59:28.694Z,99.731445
2022-09-18T05:00:38.481Z,99.627686
2022-09-18T05:01:49.096Z,99.731445
2022-09-18T05:02:57.716Z,99.316406
2022-09-18T05:04:07.500Z,99.11499
2022-09-18T05:05:17.053Z,99.01123
2022-09-18T05:06:26.757Z,99.01123
2022-09-18T05:07:36.424Z,99.212646
2022-09-18T05:08:46.234Z,99.01123
2022-09-18T05:09:55.920Z,99.01123
2022-09-18T05:11:05.595Z,99.212646
2022-09-18T05:12:14.300Z,99.11499
2022-09-18T05:13:22.951Z,98.803711
2022-09-18T05:14:31.654Z,98.803711
2022-09-18T05:15:40.320Z,98.699951
2022-09-18T05:16:50.041Z,98.907471
2022-09-18T05:17:58.013Z,99.11499
2022-09-18T05:19:07.675Z,98.803711
2022-09-18T05:20:16.632Z,99.01123
2022-09-18T05:21:24.198Z,99.01123
2022-09-18T05:22:33.893Z,99.11499
2022-09-18T05:23:43.542Z,99.11499
2022-09-18T05:24:53.210Z,99.212646
2022-09-18T05:26:04.241Z,99.01123
2022-09-18T05:27:12.906Z,99.11499
2022-09-18T05:28:22.584Z,99.420166
2022-09-18T05:29:29.250Z,99.523926
2022-09-18T05:30:36.947Z,99.212646
2022-09-18T05:31:45.686Z,99.11499
2022-09-18T05:32:56.763Z,98.907471
2022-09-18T05:34:01.995Z,99.420166
2022-09-18T05:35:10.715Z,99.627686
2022-09-18T05:36:19.505Z,99.11499
2022-09-18T05:37:28.104Z,99.11499
2022-09-18T05:38:35.782Z,99.212646
2022-09-18T05:39:44.407Z,99.627686
2022-09-18T05:40:54.125Z,99.932861
2022-09-18T05:42:02.817Z,99.731445
2022-09-18T05:43:12.553Z,99.993896
2022-09-18T05:44:21.277Z,99.993896
2022-09-18T05:45:31.059Z,99.993896
2022-09-18T05:46:39.746Z,99.829102
2022-09-18T05:47:49.414Z,99.627686
2022-09-18T05:48:59.162Z,99.523926
2022-09-18T05:50:08.868Z,99.523926
2022-09-18T05:51:16.557Z,99.316406
2022-09-18T05:52:25.494Z,99.316406
2022-09-18T05:53:34.135Z,99.316406
2022-09-18T05:54:43.793Z,99.420166
2022-09-18T05:55:53.548Z,99.627686
2022-09-18T05:57:01.283Z,99.523926
2022-09-18T05:58:09.947Z,99.731445
2022-09-18T05:59:18.709Z,99.523926
2022-09-18T06:00:28.537Z,99.212646
2022-09-18T06:01:37.302Z,99.316406
2022-09-18T06:02:47.871Z,99.420166
2022-09-18T06:03:56.813Z,98.907471
2022-09-18T06:05:03.518Z,98.498535
2022-09-18T06:06:13.223Z,98.602295
2022-09-18T06:07:20.911Z,98.394775
2022-09-18T06:08:29.734Z,98.187256
2022-09-18T06:09:39.286Z,98.040771
2022-09-18T06:10:49.058Z,97.937012
2022-09-18T06:11:57.867Z,98.449707
2022-09-18T06:13:06.534Z,98.553467
2022-09-18T06:14:16.182Z,98.553467
2022-09-18T06:15:24.861Z,98.040771
2022-09-18T06:16:34.416Z,97.729492
2022-09-18T06:17:43.301Z,97.833252
2022-09-18T06:18:52.009Z,97.833252
2022-09-18T06:20:00.654Z,97.729492
2022-09-18T06:21:08.314Z,97.528076
2022-09-18T06:22:16.017Z,97.528076
2022-09-18T06:23:25.741Z,97.631836
2022-09-18T06:24:35.651Z,97.320557
2022-09-18T06:25:43.156Z,97.833252
2022-09-18T06:26:50.821Z,97.937012
2022-09-18T06:27:59.522Z,97.729492
2022-09-18T06:29:07.255Z,97.937012
2022-09-18T06:30:14.945Z,97.528076
2022-09-18T06:31:23.703Z,96.966553
2022-09-18T06:32:31.345Z,96.966553
2022-09-18T06:33:38.984Z,96.765137
2022-09-18T06:34:48.696Z,96.557617
2022-09-18T06:35:57.414Z,96.765137
2022-09-18T06:37:07.130Z,97.070312
2022-09-18T06:38:15.769Z,97.174072
2022-09-18T06:39:25.505Z,97.070312
2022-09-18T06:40:35.526Z,97.070312
2022-09-18T06:41:44.103Z,97.174072
2022-09-18T06:42:53.797Z,96.966553
2022-09-18T06:44:02.525Z,96.661377
2022-09-18T06:45:09.202Z,96.765137
2022-09-18T06:46:17.958Z,96.453857
2022-09-18T06:47:25.609Z,96.557617
2022-09-18T06:48:34.374Z,96.966553
2022-09-18T06:49:44.101Z,96.557617
2022-09-18T06:50:52.759Z,96.661377
2022-09-18T06:52:01.475Z,96.868896
2022-09-18T06:53:12.766Z,96.966553
2022-09-18T06:54:19.781Z,96.557617
2022-09-18T06:55:28.520Z,96.557617
2022-09-18T06:56:38.380Z,96.661377
2022-09-18T06:57:48.050Z,96.868896
2022-09-18T06:58:56.746Z,97.174072
2022-09-18T07:00:05.464Z,97.381592
2022-09-18T07:01:12.274Z,97.790527
2022-09-18T07:02:21.936Z,97.479248
2022-09-18T07:03:29.644Z,97.686768
2022-09-18T07:04:38.298Z,97.790527
2022-09-18T07:05:47.058Z,97.381592
2022-09-18T07:06:55.718Z,97.381592
2022-09-18T07:08:05.409Z,97.583008
2022-09-18T07:09:14.083Z,97.790527
2022-09-18T07:10:23.727Z,98.095703
2022-09-18T07:11:33.418Z,98.406982
2022-09-18T07:12:41.225Z,98.608398
2022-09-18T07:13:49.758Z,97.991943
2022-09-18T07:14:57.577Z,98.406982
2022-09-18T07:16:06.369Z,98.510742
2022-09-18T07:17:18.643Z,98.919678
2022-09-18T07:18:26.749Z,98.815918
2022-09-18T07:19:34.500Z,98.919678
2022-09-18T07:20:41.212Z,99.224854
2022-09-18T07:21:48.843Z,99.432373
2022-09-18T07:22:56.564Z,99.328613
2022-09-18T07:24:04.330Z,99.432373
2022-09-18T07:25:14.036Z,99.841309
2022-09-18T07:26:20.794Z,99.536133
2022-09-18T07:27:29.480Z,99.377441
2022-09-18T07:28:37.304Z,99.578857
2022-09-18T07:29:45.889Z,99.890137
2022-09-18T07:30:53.593Z,99.993896
2022-09-18T07:32:02.290Z,99.993896
2022-09-18T07:33:11.027Z,99.993896
2022-09-18T07:34:20.673Z,99.993896
2022-09-18T07:35:29.423Z,99.993896
2022-09-18T07:36:36.193Z,99.993896
2022-09-18T07:37:43.870Z,99.993896
2022-09-18T07:38:52.618Z,99.993896
2022-09-18T07:40:01.230Z,99.993896
2022-09-18T07:41:09.929Z,99.993896
2022-09-18T07:42:19.589Z,99.993896
2022-09-18T07:43:26.301Z,99.993896
2022-09-18T07:44:35.117Z,99.993896
2022-09-18T07:45:44.679Z,99.993896
2022-09-18T07:46:54.463Z,99.993896
2022-09-18T07:48:02.183Z,99.993896
2022-09-18T07:49:11.884Z,99.993896
2022-09-18T07:50:20.625Z,99.993896
2022-09-18T07:51:30.409Z,99.993896
2022-09-18T07:52:38.096Z,99.993896
2022-09-18T07:53:45.762Z,99.993896
2022-09-18T07:54:54.432Z,99.993896
2022-09-18T07:56:03.105Z,99.993896
2022-09-18T07:57:12.812Z,99.993896
2022-09-18T07:58:22.473Z,99.993896
2022-09-18T07:59:31.148Z,99.993896
2022-09-18T08:00:40.980Z,99.993896
2022-09-18T08:01:49.711Z,99.993896
2022-09-18T08:02:57.296Z,99.993896
2022-09-18T08:04:05.957Z,99.993896
2022-09-18T08:05:15.652Z,99.993896
2022-09-18T08:06:25.611Z,99.993896
2022-09-18T08:07:34.315Z,99.993896
2022-09-18T08:08:43.017Z,99.993896
2022-09-18T08:09:53.660Z,99.993896
2022-09-18T08:11:01.331Z,99.993896
2022-09-18T08:12:11.027Z,99.993896
2022-09-18T08:13:18.716Z,99.993896
2022-09-18T08:14:29.021Z,99.993896
2022-09-18T08:15:37.006Z,99.993896
2022-09-18T08:16:46.820Z,99.993896
2022-09-18T08:17:54.417Z,99.993896
2022-09-18T08:19:03.037Z,99.993896
2022-09-18T08:20:11.732Z,99.993896
2022-09-18T08:21:20.418Z,99.993896
2022-09-18T08:22:29.083Z,99.993896
2022-09-18T08:23:36.800Z,99.993896
2022-09-18T08:24:45.459Z,99.993896
2022-09-18T08:25:54.203Z,99.993896
2022-09-18T08:27:00.843Z,99.993896
2022-09-18T08:28:09.543Z,99.993896
2022-09-18T08:29:19.459Z,99.993896
2022-09-18T08:30:27.923Z,99.993896
2022-09-18T08:31:35.673Z,99.993896
2022-09-18T08:32:44.431Z,99.993896
2022-09-18T08:33:53.140Z,99.993896
2022-09-18T08:35:02.827Z,99.993896
2022-09-18T08:36:11.495Z,99.993896
2022-09-18T08:37:21.191Z,99.993896
2022-09-18T08:38:30.880Z,99.993896
2022-09-18T08:39:39.509Z,99.993896
2022-09-18T08:40:48.169Z,99.993896
2022-09-18T08:41:57.838Z,99.993896
2022-09-18T08:43:06.547Z,99.993896
2022-09-18T08:44:16.236Z,99.993896
2022-09-18T08:45:25.899Z,99.993896
2022-09-18T08:46:34.609Z,99.993896
2022-09-18T08:47:42.287Z,99.993896
2022-09-18T08:48:52.099Z,99.993896
2022-09-18T08:49:59.665Z,99.993896
2022-09-18T08:51:09.355Z,99.993896
2022-09-18T08:52:19.135Z,99.993896
2022-09-18T08:53:26.813Z,99.993896
2022-09-18T08:54:35.481Z,99.993896
2022-09-18T08:55:43.219Z,99.993896
2022-09-18T08:56:51.935Z,99.993896
2022-09-18T08:58:01.656Z,99.993896
2022-09-18T08:59:08.318Z,99.993896
2022-09-18T09:00:16.031Z,99.853516
2022-09-18T09:01:24.844Z,99.993896
2022-09-18T09:02:32.504Z,99.993896
2022-09-18T09:03:41.238Z,99.993896
2022-09-18T09:04:51.181Z,99.951172
2022-09-18T09:05:58.735Z,99.951172
2022-09-18T09:07:08.456Z,99.542236
2022-09-18T09:08:18.121Z,99.133301
2022-09-18T09:09:26.835Z,99.133301
2022-09-18T09:10:35.500Z,99.395752
2022-09-18T09:11:45.179Z,99.395752
2022-09-18T09:12:54.906Z,98.675537
2022-09-18T09:14:03.647Z,98.370361
2022-09-18T09:15:12.346Z,98.266602
2022-09-18T09:16:23.112Z,98.577881
2022-09-18T09:17:31.950Z,98.370361
2022-09-18T09:18:40.759Z,97.753906
2022-09-18T09:19:49.468Z,98.529053
2022-09-18T09:20:57.379Z,98.223877
2022-09-18T09:22:06.165Z,97.198486
2022-09-18T09:23:15.702Z,96.789551
2022-09-18T09:24:25.378Z,97.094727
2022-09-18T09:25:34.113Z,96.582031
2022-09-18T09:26:43.839Z,96.893311
2022-09-18T09:27:52.516Z,96.380615
2022-09-18T09:29:02.239Z,96.276855
2022-09-18T09:30:08.928Z,95.355225
2022-09-18T09:31:17.680Z,95.513916
2022-09-18T09:32:26.315Z,95.922852
2022-09-18T09:33:35.085Z,95.819092
2022-09-18T09:34:44.800Z,95.410156
2022-09-18T09:35:54.500Z,94.488525
2022-09-18T09:37:01.262Z,94.696045
2022-09-18T09:38:09.934Z,94.897461
2022-09-18T09:39:18.663Z,95.410156
2022-09-18T09:40:27.444Z,94.592285
2022-09-18T09:41:37.199Z,94.799805
2022-09-18T09:42:46.970Z,95.20874
2022-09-18T09:43:56.801Z,94.799805
2022-09-18T09:45:03.581Z,94.488525
2022-09-18T09:46:12.192Z,94.799805
2022-09-18T09:47:21.862Z,93.469238
2022-09-18T09:48:31.554Z,94.287109
2022-09-18T09:49:39.246Z,94.696045
2022-09-18T09:50:49.116Z,93.670654
2022-09-18T09:51:56.733Z,93.878174
2022-09-18T09:53:05.547Z,93.981934
2022-09-18T09:54:16.132Z,94.445801
2022-09-18T09:55:22.829Z,94.854736
2022-09-18T09:56:29.513Z,94.549561
2022-09-18T09:57:38.187Z,93.322754
2022-09-18T09:58:46.963Z,93.52417
2022-09-18T09:59:54.624Z,93.62793
2022-09-18T10:01:03.403Z,93.011475
2022-09-18T10:02:12.070Z,93.426514
2022-09-18T10:03:20.683Z,92.810059
2022-09-18T10:04:27.375Z,93.115234
2022-09-18T10:05:36.073Z,93.115234
2022-09-18T10:06:43.809Z,92.663574
2022-09-18T10:07:53.489Z,93.585205
2022-09-18T10:09:03.325Z,92.871094
2022-09-18T10:10:12.824Z,92.96875
2022-09-18T10:11:22.504Z,93.786621
2022-09-18T10:12:32.331Z,94.0979
2022-09-18T10:13:42.057Z,93.994141
2022-09-18T10:14:49.719Z,93.377686
2022-09-18T10:15:59.395Z,93.994141
2022-09-18T10:17:07.067Z,93.688965
2022-09-18T10:18:16.470Z,93.585205
2022-09-18T10:19:23.428Z,93.786621
2022-09-18T10:20:31.059Z,93.62793
2022-09-18T10:21:40.730Z,94.549561
2022-09-18T10:22:47.397Z,95.062256
2022-09-18T10:23:55.228Z,94.445801
2022-09-18T10:25:04.087Z,94.342041
2022-09-18T10:26:13.595Z,94.958496
2022-09-18T10:27:23.379Z,94.445801
2022-09-18T10:28:33.151Z,94.854736
2022-09-18T10:29:41.955Z,95.367432
2022-09-18T10:30:51.671Z,95.263672
2022-09-18T10:32:00.361Z,94.244385
2022-09-18T10:33:10.046Z,94.65332
2022-09-18T10:34:18.711Z,95.471191
2022-09-18T10:35:27.457Z,94.445801
2022-09-18T10:36:36.093Z,94.445801
2022-09-18T10:37:45.755Z,94.445801
2022-09-18T10:38:53.413Z,94.750977
2022-09-18T10:40:02.146Z,95.166016
2022-09-18T10:41:12.011Z,95.220947
2022-09-18T10:42:20.569Z,93.994141
2022-09-18T10:43:30.261Z,93.585205
2022-09-18T10:44:39.997Z,93.481445
2022-09-18T10:45:49.717Z,93.17627
2022-09-18T10:46:59.552Z,93.481445
2022-09-18T10:48:08.145Z,93.334961
2022-09-18T10:49:16.868Z,93.438721
2022-09-18T10:50:25.494Z,92.828369
2022-09-18T10:51:36.099Z,91.906738
2022-09-18T10:52:43.799Z,92.419434
2022-09-18T10:53:51.588Z,92.419434
2022-09-18T10:55:00.300Z,92.62085
2022-09-18T10:56:08.978Z,92.315674
2022-09-18T10:57:18.819Z,92.828369
2022-09-18T10:58:27.478Z,93.237305
2022-09-18T10:59:36.168Z,91.906738
2022-09-18T11:00:44.952Z,91.497803
2022-09-18T11:01:53.629Z,91.802979
2022-09-18T11:03:01.335Z,90.881348
2022-09-18T11:04:09.009Z,91.149902
2022-09-18T11:05:18.683Z,90.637207
2022-09-18T11:06:26.379Z,89.923096
2022-09-18T11:07:34.063Z,90.020752
2022-09-18T11:08:42.787Z,90.838623
2022-09-18T11:09:51.499Z,91.247559
2022-09-18T11:11:00.225Z,91.497803
2022-09-18T11:12:09.889Z,92.010498
2022-09-18T11:13:18.688Z,91.906738
2022-09-18T11:14:27.276Z,92.108154
2022-09-18T11:15:37.073Z,92.926025
2022-09-18T11:16:45.754Z,93.54248
2022-09-18T11:17:53.413Z,94.152832
2022-09-18T11:19:07.115Z,94.360352
2022-09-18T11:20:12.523Z,94.873047
2022-09-18T11:21:21.495Z,94.152832
2022-09-18T11:22:31.186Z,94.665527
2022-09-18T11:23:40.884Z,95.483398
2022-09-18T11:24:49.594Z,95.379639
2022-09-18T11:25:59.359Z,95.379639
2022-09-18T11:27:09.150Z,95.428467
2022-09-18T11:28:16.858Z,95.629883
2022-09-18T11:29:25.638Z,96.246338
2022-09-18T11:30:33.399Z,96.856689
2022-09-18T11:31:42.131Z,97.064209
2022-09-18T11:32:49.754Z,97.064209
2022-09-18T11:34:00.772Z,97.369385
2022-09-18T11:35:08.067Z,97.528076
2022-09-18T11:36:16.738Z,96.606445
2022-09-18T11:37:24.527Z,96.710205
2022-09-18T11:38:32.205Z,96.19751
2022-09-18T11:39:40.879Z,95.483398
2022-09-18T11:40:49.595Z,95.64209
2022-09-18T11:41:58.239Z,94.927979
2022-09-18T11:43:06.936Z,93.597412
2022-09-18T11:44:14.658Z,94.213867
2022-09-18T11:45:24.466Z,93.395996
2022-09-18T11:46:34.078Z,93.395996
2022-09-18T11:47:42.740Z,93.395996
2022-09-18T11:48:52.384Z,93.499756
2022-09-18T11:50:02.088Z,93.292236
2022-09-18T11:51:10.838Z,92.987061
2022-09-18T11:52:19.490Z,93.499756
2022-09-18T11:53:27.161Z,93.597412
2022-09-18T11:54:34.859Z,93.804932
2022-09-18T11:55:44.572Z,93.908691
2022-09-18T11:56:54.243Z,93.701172
2022-09-18T11:58:00.897Z,94.006348
2022-09-18T11:59:09.567Z,94.213867
2022-09-18T12:00:18.301Z,93.395996
2022-09-18T12:01:28.132Z,93.395996
2022-09-18T12:02:35.817Z,93.908691
2022-09-18T12:03:45.332Z,93.554688
2022-09-18T12:04:55.160Z,93.249512
2022-09-18T12:06:05.024Z,92.840576
2022-09-18T12:07:13.785Z,92.5354
2022-09-18T12:08:40.091Z,92.736816
2022-09-18T12:09:48.794Z,92.022705
2022-09-18T12:10:58.477Z,92.022705
2022-09-18T12:12:05.179Z,92.840576
2022-09-18T12:13:14.891Z,94.885254
2022-09-18T12:14:23.617Z,95.904541
2022-09-18T12:15:32.319Z,96.459961
2022-09-18T12:16:41.168Z,96.563721
2022-09-18T12:17:50.680Z,96.972656
2022-09-18T12:18:58.439Z,97.735596
2022-09-18T12:20:07.229Z,98.040771
2022-09-18T12:21:16.920Z,98.449707
2022-09-18T12:22:26.702Z,98.394775
2022-09-18T12:23:35.400Z,98.699951
2022-09-18T12:24:45.151Z,98.64502
2022-09-18T12:25:52.820Z,98.4375
2022-09-18T12:27:02.501Z,98.846436
2022-09-18T12:28:12.162Z,99.255371
2022-09-18T12:29:20.878Z,99.560547
2022-09-18T12:30:30.599Z,99.871826
2022-09-18T12:31:41.345Z,99.768066
2022-09-18T12:32:50.218Z,99.871826
2022-09-18T12:33:58.844Z,99.768066
2022-09-18T12:35:06.577Z,98.950195
2022-09-18T12:36:14.252Z,99.151611
2022-09-18T12:37:20.921Z,99.768066
2022-09-18T12:38:29.616Z,99.975586
2022-09-18T12:39:38.981Z,99.993896
2022-09-18T12:40:48.684Z,99.993896
2022-09-18T12:41:56.331Z,99.993896
2022-09-18T12:43:07.031Z,99.993896
2022-09-18T12:44:16.755Z,99.975586
2022-09-18T12:45:25.481Z,99.822998
2022-09-18T12:46:33.287Z,99.621582
2022-09-18T12:47:43.052Z,99.108887
2022-09-18T12:48:51.930Z,99.572754
2022-09-18T12:50:01.504Z,98.651123
2022-09-18T12:51:09.219Z,98.242188
2022-09-18T12:52:16.910Z,97.119141
2022-09-18T12:53:24.554Z,97.528076
2022-09-18T12:54:33.262Z,96.813965
2022-09-18T12:55:42.938Z,95.996094
2022-09-18T12:56:52.637Z,95.440674
2022-09-18T12:58:02.389Z,94.927979
2022-09-18T12:59:12.080Z,95.53833
2022-09-18T13:00:19.748Z,95.031738
2022-09-18T13:01:28.451Z,94.622803
2022-09-18T13:02:37.235Z,94.055176
2022-09-18T13:03:45.852Z,94.561768
2022-09-18T13:04:55.701Z,94.256592
2022-09-18T13:06:05.358Z,95.587158
2022-09-18T13:07:14.141Z,95.587158